Time;durP1;ratioP1;P1;durP2;ratioP2;P2;SDS_P1;SDS_P2;PMS_P1;PMS_P2;Temp;Humidity;BMP_temperature;BMP_pressure;BME280_temperature;BME280_humidity;BME280_pressure;Samples;Min_cycle;Max_cycle;Signal;HPM_P1;HPM_P2
2022/10/23 00:01:40;;;;;;;25.45;15.93;;;;;;;19.55;72.81;101638.34;4982409;28;20079;-79
2022/10/23 00:04:21;;;;;;;29.17;14.07;;;;;;;19.76;72.57;101668.31;5000760;28;20677;-82
2022/10/23 00:06:48;;;;;;;33.75;16.30;;;;;;;19.57;72.82;101649.78;5003145;28;20053;-80
2022/10/23 00:09:18;;;;;;;27.67;15.32;;;;;;;19.89;73.34;101715.44;4999701;28;20453;-81
2022/10/23 00:11:49;;;;;;;28.92;16.55;;;;;;;19.83;73.15;101709.72;5001001;28;20049;-81
2022/10/23 00:14:20;;;;;;;29.73;16.50;;;;;;;19.49;73.60;101671.31;4999610;28;20652;-82
2022/10/23 00:16:46;;;;;;;25.00;15.30;;;;;;;19.75;73.24;101698.94;5004813;28;20052;-80
2022/10/23 00:19:13;;;;;;;21.25;14.57;;;;;;;19.72;73.26;101698.44;5000239;28;20092;-80
2022/10/23 00:21:40;;;;;;;29.77;14.95;;;;;;;19.40;73.49;101668.63;5000231;28;20064;-83
2022/10/23 00:24:09;;;;;;;30.95;15.73;;;;;;;19.70;73.66;101733.63;4983069;28;20053;-80
2022/10/23 00:26:39;;;;;;;28.17;15.68;;;;;;;19.65;74.23;101717.94;4982768;28;20053;-81
2022/10/23 00:29:06;;;;;;;32.40;16.17;;;;;;;19.47;74.14;101690.34;4984388;28;20049;-81
2022/10/23 00:31:33;;;;;;;26.95;15.15;;;;;;;19.61;74.19;101718.44;4985148;28;20556;-80
2022/10/23 00:34:02;;;;;;;27.23;15.13;;;;;;;19.34;74.16;101671.97;4985987;28;20269;-80
2022/10/23 00:36:29;;;;;;;33.53;14.63;;;;;;;19.62;74.22;101720.13;4982748;28;20608;-82
2022/10/23 00:38:56;;;;;;;22.90;13.57;;;;;;;19.46;74.09;101698.59;4999419;28;20095;-81
2022/10/23 00:41:27;;;;;;;27.00;15.20;;;;;;;18.74;74.46;101591.53;4999890;28;20214;-82
2022/10/23 00:43:56;;;;;;;24.13;15.07;;;;;;;19.53;74.10;101731.91;4999382;28;20069;-80
2022/10/23 00:46:24;;;;;;;27.90;14.73;;;;;;;19.45;73.40;101721.16;4997890;28;20543;-79
2022/10/23 00:48:51;;;;;;;33.95;15.48;;;;;;;19.50;72.48;101735.78;4997730;28;20049;-81
2022/10/23 00:51:18;;;;;;;33.58;16.40;;;;;;;19.28;72.71;101715.75;4998410;28;20291;-81
2022/10/23 00:53:51;;;;;;;29.02;16.75;;;;;;;18.86;72.80;101649.41;4981329;28;20053;-81
2022/10/23 00:56:34;;;;;;;34.67;17.42;;;;;;;19.18;72.48;101697.06;5001084;28;20072;-79
2022/10/23 00:59:01;;;;;;;30.33;16.42;;;;;;;18.89;72.23;101653.63;4981181;28;20373;-81
2022/10/23 01:01:30;;;;;;;35.08;18.65;;;;;;;19.29;72.42;101736.25;4980617;28;20140;-80
2022/10/23 01:03:58;;;;;;;28.17;16.77;;;;;;;19.15;72.88;101720.75;4984514;28;20632;-80
2022/10/23 01:06:45;;;;;;;29.98;16.27;;;;;;;19.17;72.54;101726.81;5000239;28;20175;-82
2022/10/23 01:09:17;;;;;;;28.85;18.63;;;;;;;19.12;72.79;101730.00;5002902;28;20552;-81
2022/10/23 01:12:13;;;;;;;32.85;16.75;;;;;;;19.03;72.40;101728.34;4999606;28;20272;-80
2022/10/23 01:14:39;;;;;;;30.67;18.50;;;;;;;19.02;73.02;101744.63;4983647;28;20586;-81
2022/10/23 01:17:32;;;;;;;31.10;18.75;;;;;;;18.83;72.91;101714.28;4998310;28;20054;-80
2022/10/23 01:20:38;;;;;;;37.38;18.75;;;;;;;18.87;73.02;101737.19;5001368;28;20068;-80
2022/10/23 01:23:05;;;;;;;24.15;17.90;;;;;;;18.13;73.38;101615.88;4957703;28;20053;-78
2022/10/23 01:25:51;;;;;;;39.97;18.70;;;;;;;18.69;73.29;101701.44;5016255;28;20042;-78
2022/10/23 01:28:29;;;;;;;27.77;18.40;;;;;;;18.30;73.17;101648.19;5015095;28;20111;-78
2022/10/23 01:30:58;;;;;;;26.50;18.42;;;;;;;18.64;73.75;101715.41;5017540;28;20549;-79
2022/10/23 01:33:32;;;;;;;28.00;18.33;;;;;;;18.54;73.71;101704.78;5009343;28;20053;-80
2022/10/23 01:36:04;;;;;;;29.23;18.58;;;;;;;18.50;74.16;101708.78;4999086;28;20750;-80
2022/10/23 01:38:43;;;;;;;32.28;18.52;;;;;;;18.35;74.30;101688.91;4980639;28;20065;-81
2022/10/23 01:41:24;;;;;;;37.20;17.98;;;;;;;18.23;74.41;101660.59;4977470;28;20397;-80
2022/10/23 01:44:06;;;;;;;35.30;18.25;;;;;;;18.40;74.61;101697.31;4978854;28;20054;-82
2022/10/23 01:46:34;;;;;;;33.85;18.67;;;;;;;18.41;74.55;101690.91;4978058;28;20701;-81
2022/10/23 01:49:04;;;;;;;30.10;18.58;;;;;;;18.57;74.70;101720.56;4987898;28;20245;-80
2022/10/23 01:51:34;;;;;;;32.33;18.67;;;;;;;18.41;74.55;101693.59;4995205;28;20391;-81
2022/10/23 01:54:05;;;;;;;28.58;19.42;;;;;;;18.58;75.00;101714.19;4981019;28;20167;-80
2022/10/23 01:56:34;;;;;;;28.67;18.30;;;;;;;18.72;74.00;101717.28;4978515;28;20060;-81
2022/10/23 01:59:08;;;;;;;31.33;18.85;;;;;;;18.64;74.40;101715.41;4979779;28;20297;-81
2022/10/23 02:01:40;;;;;;;33.88;18.15;;;;;;;18.46;74.72;101693.97;4998561;28;20061;-81
2022/10/23 02:04:11;;;;;;;31.58;18.63;;;;;;;18.28;74.97;101677.09;4996761;28;20049;-81
2022/10/23 02:06:40;;;;;;;37.30;19.17;;;;;;;18.29;75.42;101689.53;4980549;28;20613;-81
2022/10/23 02:09:07;;;;;;;31.83;17.98;;;;;;;18.49;75.63;101717.84;5000194;28;20174;-82
2022/10/23 02:11:41;;;;;;;39.08;19.50;;;;;;;18.04;75.49;101648.25;4981999;28;20458;-81
2022/10/23 02:14:19;;;;;;;37.78;21.05;;;;;;;18.47;75.59;101719.88;4980655;28;20053;-80
2022/10/23 02:16:59;;;;;;;40.13;20.35;;;;;;;18.35;75.41;101705.84;4997093;28;20049;-81
2022/10/23 02:19:31;;;;;;;40.35;20.08;;;;;;;18.52;75.72;101728.28;5000169;28;20895;-81
2022/10/23 02:22:14;;;;;;;37.50;21.08;;;;;;;18.51;75.96;101723.06;4981503;28;20430;-81
2022/10/23 02:24:50;;;;;;;31.23;19.70;;;;;;;18.27;75.56;101675.41;4996068;28;20240;-81
2022/10/23 02:27:34;;;;;;;31.42;18.63;;;;;;;18.55;75.42;101721.75;4980691;28;21108;-81
2022/10/23 02:30:07;;;;;;;37.58;18.60;;;;;;;18.44;75.75;101706.72;5001284;28;20049;-81
2022/10/23 02:32:37;;;;;;;39.80;20.52;;;;;;;18.44;75.73;101720.16;4981974;28;20496;-80
2022/10/23 02:35:05;;;;;;;31.35;20.20;;;;;;;18.43;76.19;101729.25;5004731;28;20547;-80
2022/10/23 02:37:32;;;;;;;32.10;19.45;;;;;;;18.44;76.43;101730.09;4970311;28;20065;-81
2022/10/23 02:39:59;;;;;;;30.42;19.40;;;;;;;18.40;75.94;101721.50;4974700;28;20062;-83
2022/10/23 02:43:08;;;;;;;30.35;19.67;;;;;;;18.30;76.54;101712.69;4978115;28;20046;-81
2022/10/23 02:45:45;;;;;;;45.70;20.25;;;;;;;18.22;76.52;101704.59;4978162;28;20493;-82
2022/10/23 02:48:28;;;;;;;34.85;19.30;;;;;;;18.30;76.59;101718.94;4977475;28;20054;-82
2022/10/23 02:51:19;;;;;;;31.60;21.33;;;;;;;18.32;76.71;101721.44;4994889;28;20136;-81
2022/10/23 02:54:12;;;;;;;35.20;19.95;;;;;;;18.11;76.89;101698.50;4977010;28;20393;-79
2022/10/23 02:56:52;;;;;;;26.30;19.20;;;;;;;18.31;76.78;101722.47;4977580;28;20046;-81
2022/10/23 02:59:46;;;;;;;31.27;18.38;;;;;;;17.96;76.88;101672.38;4977791;28;20093;-80
2022/10/23 03:02:37;;;;;;;32.13;19.08;;;;;;;18.24;77.01;101713.34;4975665;28;20058;-81
2022/10/23 03:05:08;;;;;;;34.00;18.95;;;;;;;17.92;76.87;101666.50;4978700;28;20057;-79
2022/10/23 03:07:37;;;;;;;30.67;19.35;;;;;;;18.26;77.41;101719.41;4980514;28;20054;-81
2022/10/23 03:10:07;;;;;;;30.20;19.58;;;;;;;18.14;77.28;101706.25;4980776;28;20046;-82
2022/10/23 03:12:34;;;;;;;34.55;20.02;;;;;;;18.27;77.00;101729.16;4981613;28;20132;-81
2022/10/23 03:15:00;;;;;;;31.23;19.55;;;;;;;18.30;77.52;101734.19;4981193;28;20138;-79
2022/10/23 03:17:32;;;;;;;35.15;19.92;;;;;;;18.13;77.19;101707.25;4978990;28;20050;-81
2022/10/23 03:19:59;;;;;;;40.28;20.60;;;;;;;18.23;77.57;101734.03;4985244;28;20172;-81
2022/10/23 03:22:26;;;;;;;33.42;21.50;;;;;;;18.24;77.52;101718.72;4994549;28;20743;-79
2022/10/23 03:24:53;;;;;;;35.38;20.25;;;;;;;18.23;77.36;101717.03;4985319;28;20088;-81
2022/10/23 03:27:20;;;;;;;37.28;20.90;;;;;;;18.29;77.67;101725.31;4986107;28;20060;-79
2022/10/23 03:29:47;;;;;;;35.60;21.02;;;;;;;18.18;77.47;101716.66;4985924;28;20140;-81
2022/10/23 03:32:16;;;;;;;39.70;20.33;;;;;;;18.06;77.78;101711.56;4985381;28;20057;-81
2022/10/23 03:34:43;;;;;;;32.35;20.92;;;;;;;17.70;77.85;101654.41;5002241;28;20647;-82
2022/10/23 03:37:10;;;;;;;32.38;20.25;;;;;;;18.26;78.03;101738.22;4981937;28;20041;-82
2022/10/23 03:39:36;;;;;;;34.83;20.75;;;;;;;17.85;77.87;101660.91;4983182;28;20650;-81
2022/10/23 03:42:12;;;;;;;34.78;20.50;;;;;;;18.12;77.42;101716.31;4983712;28;20046;-81
2022/10/23 03:44:39;;;;;;;41.58;21.55;;;;;;;18.27;78.11;101745.28;4980193;28;20160;-80
2022/10/23 03:47:08;;;;;;;37.45;21.92;;;;;;;17.98;77.97;101694.56;4980338;28;20395;-80
2022/10/23 03:49:38;;;;;;;40.90;21.95;;;;;;;18.24;77.84;101740.22;4990582;28;20081;-80
2022/10/23 03:52:06;;;;;;;31.00;19.15;;;;;;;18.30;78.17;101739.56;4981990;28;20533;-81
2022/10/23 03:54:33;;;;;;;35.58;21.13;;;;;;;18.35;77.73;101737.28;4983712;28;20144;-80
2022/10/23 03:57:03;;;;;;;33.88;21.27;;;;;;;18.17;77.78;101701.56;4982675;28;20060;-80
2022/10/23 03:59:30;;;;;;;42.67;21.48;;;;;;;18.27;78.10;101721.94;4979930;28;20060;-81
2022/10/23 04:01:58;;;;;;;38.17;19.75;;;;;;;18.36;77.90;101728.19;4982401;28;20057;-81
2022/10/23 04:04:26;;;;;;;38.40;20.55;;;;;;;18.39;77.32;101722.50;4984213;28;20136;-80
2022/10/23 04:06:52;;;;;;;33.65;20.40;;;;;;;18.11;77.77;101687.75;5002002;28;20293;-81
2022/10/23 04:09:19;;;;;;;29.75;18.55;;;;;;;18.28;77.34;101706.66;4984465;28;21058;-79
2022/10/23 04:11:46;;;;;;;31.35;18.65;;;;;;;18.43;77.39;101729.25;5000210;28;20053;-79
2022/10/23 04:14:13;;;;;;;32.65;18.75;;;;;;;18.19;77.31;101684.25;5002022;28;20531;-79
2022/10/23 04:16:41;;;;;;;37.58;19.48;;;;;;;18.29;76.98;101689.53;5000650;28;20049;-81
2022/10/23 04:19:08;;;;;;;32.85;18.73;;;;;;;17.64;77.07;101598.63;4985139;28;20119;-81
2022/10/23 04:21:35;;;;;;;33.45;20.75;;;;;;;18.41;77.23;101719.66;5000299;28;20505;-80
2022/10/23 04:24:02;;;;;;;39.97;21.15;;;;;;;18.34;77.43;101740.94;4985606;28;20640;-80
2022/10/23 04:26:29;;;;;;;34.90;20.02;;;;;;;18.29;77.74;101737.91;4986167;28;20053;-80
2022/10/23 04:29:01;;;;;;;32.58;19.30;;;;;;;18.09;77.98;101713.94;5001656;28;20049;-80
2022/10/23 04:31:28;;;;;;;34.42;19.27;;;;;;;18.18;77.81;101730.09;4983800;28;20444;-80
2022/10/23 04:33:56;;;;;;;36.28;20.20;;;;;;;18.14;78.03;101734.97;4984510;28;20045;-81
2022/10/23 04:36:23;;;;;;;32.22;19.85;;;;;;;18.12;77.62;101743.19;5002510;28;20049;-81
2022/10/23 04:38:49;;;;;;;29.25;19.60;;;;;;;18.14;78.19;101751.09;5003740;28;20139;-81
2022/10/23 04:41:19;;;;;;;32.08;20.48;;;;;;;17.97;78.15;101728.63;5004538;28;20191;-79
2022/10/23 04:43:45;;;;;;;38.28;20.65;;;;;;;18.13;77.93;101750.25;5002281;28;20073;-81
2022/10/23 04:46:12;;;;;;;31.50;19.75;;;;;;;18.03;78.25;101724.47;4999930;28;20049;-80
2022/10/23 04:48:41;;;;;;;29.23;18.58;;;;;;;18.10;78.00;101737.09;5000888;28;20527;-80
2022/10/23 04:51:09;;;;;;;34.88;20.27;;;;;;;18.02;78.40;101731.69;4984465;28;20466;-78
2022/10/23 04:53:37;;;;;;;31.55;20.00;;;;;;;17.89;78.07;101702.56;4983736;28;20168;-80
2022/10/23 04:56:14;;;;;;;28.67;19.33;;;;;;;17.59;77.77;101655.47;4982804;28;20147;-80
2022/10/23 04:58:45;;;;;;;36.33;20.60;;;;;;;18.09;77.72;101743.50;5002323;28;20049;-77
2022/10/23 05:01:12;;;;;;;32.90;20.23;;;;;;;17.90;78.24;101716.84;4978741;28;20136;-80
2022/10/23 05:03:39;;;;;;;31.95;19.85;;;;;;;17.89;78.09;101715.16;5000267;28;20554;-81
2022/10/23 05:06:11;;;;;;;35.00;20.48;;;;;;;17.87;78.42;101717.16;4981914;28;20158;-79
2022/10/23 05:08:38;;;;;;;32.78;19.67;;;;;;;17.93;77.89;101717.34;4982331;28;20057;-79
2022/10/23 05:11:08;;;;;;;32.92;19.98;;;;;;;18.06;78.06;101742.97;4997846;28;20525;-80
2022/10/23 05:13:38;;;;;;;35.67;21.20;;;;;;;18.01;78.28;101734.53;4985142;28;20041;-80
2022/10/23 05:16:18;;;;;;;33.33;20.20;;;;;;;17.76;78.09;101709.31;5000497;28;20222;-80
2022/10/23 05:18:47;;;;;;;39.95;20.08;;;;;;;17.96;78.20;101729.63;4999570;28;20061;-78
2022/10/23 05:21:25;;;;;;;36.60;21.88;;;;;;;17.65;78.58;101687.09;4985328;28;20042;-79
2022/10/23 05:23:53;;;;;;;33.80;21.20;;;;;;;17.85;78.41;101708.41;4984981;28;20049;-80
2022/10/23 05:26:23;;;;;;;42.10;22.98;;;;;;;17.99;78.67;101737.41;5001617;28;20057;-80
2022/10/23 05:28:49;;;;;;;36.42;22.42;;;;;;;17.78;78.30;101696.56;5000684;28;20374;-79
2022/10/23 05:31:21;;;;;;;35.70;22.27;;;;;;;18.02;78.03;101715.56;4999272;28;20500;-80
2022/10/23 05:33:55;;;;;;;39.40;23.80;;;;;;;17.91;78.10;101707.75;4992081;28;20155;-80
2022/10/23 05:36:23;;;;;;;31.73;20.45;;;;;;;18.05;77.89;101720.63;4984241;28;20061;-81
2022/10/23 05:38:50;;;;;;;34.80;22.10;;;;;;;18.12;77.66;101724.38;4980908;28;20189;-79
2022/10/23 05:41:17;;;;;;;34.95;23.13;;;;;;;18.10;77.75;101731.75;4969419;28;20057;-81
2022/10/23 05:43:45;;;;;;;36.90;22.88;;;;;;;18.07;77.75;101718.63;4985613;28;20156;-80
2022/10/23 05:46:11;;;;;;;34.40;22.30;;;;;;;17.89;77.42;101693.69;4999732;28;20064;-80
2022/10/23 05:48:41;;;;;;;35.88;22.17;;;;;;;18.17;77.70;101739.19;4983856;28;20053;-80
2022/10/23 05:51:19;;;;;;;36.30;21.30;;;;;;;18.11;77.37;101735.28;4999080;28;20057;-80
2022/10/23 05:53:45;;;;;;;45.80;23.25;;;;;;;18.15;77.32;101745.53;4994239;28;20394;-78
2022/10/23 05:56:12;;;;;;;30.13;20.90;;;;;;;18.07;77.26;101745.50;4984389;28;20312;-80
2022/10/23 05:58:43;;;;;;;36.90;20.75;;;;;;;18.03;77.10;101736.06;4988538;28;20633;-79
2022/10/23 06:01:12;;;;;;;30.05;21.05;;;;;;;18.07;76.96;101756.25;4983368;28;20068;-81
2022/10/23 06:03:39;;;;;;;32.63;20.58;;;;;;;18.08;77.26;101757.94;5001831;28;20057;-80
2022/10/23 06:06:07;;;;;;;36.40;22.30;;;;;;;18.05;77.38;101763.63;4996355;28;20050;-79
2022/10/23 06:08:34;;;;;;;38.08;21.00;;;;;;;17.83;77.64;101722.00;5001666;28;20572;-80
2022/10/23 06:11:09;;;;;;;39.97;21.88;;;;;;;17.88;77.78;101745.69;4981599;28;20480;-81
2022/10/23 06:13:36;;;;;;;41.17;23.40;;;;;;;17.84;77.74;101747.00;4979963;28;20599;-79
2022/10/23 06:16:21;;;;;;;39.55;22.33;;;;;;;17.99;77.86;101774.16;4999938;28;20397;-80
2022/10/23 06:18:48;;;;;;;29.70;20.08;;;;;;;18.03;77.96;101779.03;5000054;28;20282;-80
2022/10/23 06:21:16;;;;;;;34.25;21.35;;;;;;;18.05;77.77;101790.47;4980790;28;20156;-79
2022/10/23 06:23:45;;;;;;;42.33;24.05;;;;;;;17.36;77.97;101689.22;4998023;28;20455;-78
2022/10/23 06:26:14;;;;;;;36.10;22.77;;;;;;;17.88;78.88;101799.41;4981752;28;20045;-82
2022/10/23 06:28:43;;;;;;;36.17;23.53;;;;;;;17.84;79.21;101798.91;4999378;28;20136;-81
2022/10/23 06:31:13;;;;;;;39.33;23.58;;;;;;;17.80;78.86;101797.50;4998852;28;20292;-81
2022/10/23 06:33:40;;;;;;;39.20;24.02;;;;;;;17.06;79.17;101685.88;5000433;28;20049;-80
2022/10/23 06:36:09;;;;;;;38.95;24.15;;;;;;;17.65;79.41;101788.28;4982393;28;20057;-80
2022/10/23 06:38:42;;;;;;;40.35;22.83;;;;;;;17.72;79.25;101800.94;4999884;28;20048;-79
2022/10/23 06:41:15;;;;;;;37.53;22.10;;;;;;;17.60;79.40;101779.81;4996965;28;20054;-81
2022/10/23 06:43:42;;;;;;;36.95;22.80;;;;;;;17.42;79.70;101764.56;5001279;28;20049;-80
2022/10/23 06:46:11;;;;;;;34.58;23.15;;;;;;;17.81;79.55;101825.22;5000099;28;20049;-79
2022/10/23 06:48:40;;;;;;;35.47;21.90;;;;;;;17.65;79.90;101810.63;4992863;28;20054;-80
2022/10/23 06:51:10;;;;;;;34.45;21.10;;;;;;;17.88;79.50;101828.97;4962944;28;20506;-80
2022/10/23 06:53:37;;;;;;;37.28;23.20;;;;;;;17.86;79.25;101821.06;4982368;28;20378;-80
2022/10/23 06:56:06;;;;;;;34.53;21.65;;;;;;;17.86;80.22;101828.28;4988251;28;20550;-81
2022/10/23 06:58:34;;;;;;;45.03;25.23;;;;;;;17.90;79.51;101829.66;4985961;28;20056;-80
2022/10/23 07:01:06;;;;;;;40.45;22.98;;;;;;;17.73;79.51;101797.25;4995032;28;20045;-80
2022/10/23 07:03:34;;;;;;;44.15;24.73;;;;;;;17.84;79.45;101803.41;4977294;28;20058;-80
2022/10/23 07:06:03;;;;;;;47.15;26.17;;;;;;;17.41;79.96;101743.25;4980093;28;20059;-79
2022/10/23 07:08:30;;;;;;;40.90;22.92;;;;;;;17.76;80.32;101816.75;4994769;28;20378;-79
2022/10/23 07:11:02;;;;;;;38.50;23.92;;;;;;;17.42;80.26;101756.50;4992763;28;20053;-80
2022/10/23 07:13:29;;;;;;;38.83;22.67;;;;;;;17.85;80.47;101819.38;4991194;28;20148;-81
2022/10/23 07:15:56;;;;;;;42.50;23.60;;;;;;;17.94;80.55;101825.69;4973881;28;20618;-80
2022/10/23 07:18:23;;;;;;;42.75;23.05;;;;;;;17.94;80.40;101825.69;4976788;28;20566;-81
2022/10/23 07:20:57;;;;;;;33.97;21.95;;;;;;;17.50;80.33;101747.69;4994248;28;20263;-80
2022/10/23 07:23:24;;;;;;;38.00;21.90;;;;;;;17.88;80.21;101799.41;4993300;28;20064;-81
2022/10/23 07:25:51;;;;;;;43.10;22.58;;;;;;;17.94;80.38;101806.88;4996695;28;20652;-80
2022/10/23 07:28:18;;;;;;;34.22;21.30;;;;;;;18.00;80.21;101808.91;4977562;28;20548;-81
2022/10/23 07:30:55;;;;;;;29.90;19.30;;;;;;;18.25;79.85;101839.50;4996380;28;20053;-80
2022/10/23 07:33:25;;;;;;;27.15;17.98;;;;;;;18.22;79.76;101823.69;4981698;28;20544;-80
2022/10/23 07:35:55;;;;;;;29.25;19.27;;;;;;;18.29;79.80;101831.97;4979984;28;20068;-80
2022/10/23 07:38:26;;;;;;;30.48;18.73;;;;;;;17.98;80.04;101777.84;4979536;28;20152;-81
2022/10/23 07:40:57;;;;;;;24.40;17.73;;;;;;;18.30;80.39;101826.47;4998112;28;20441;-80
2022/10/23 07:43:25;;;;;;;31.92;19.20;;;;;;;18.32;79.72;101807.47;5000488;28;20773;-81
2022/10/23 07:45:54;;;;;;;30.58;19.88;;;;;;;18.18;79.71;101805.34;4998849;28;20057;-81
2022/10/23 07:48:22;;;;;;;29.65;19.92;;;;;;;18.48;79.29;101844.38;5009864;28;20131;-80
2022/10/23 07:50:50;;;;;;;26.65;19.45;;;;;;;18.56;79.13;101839.88;4998185;28;20440;-80
2022/10/23 07:53:22;;;;;;;27.48;18.90;;;;;;;18.57;78.72;101833.53;4979823;28;20123;-79
2022/10/23 07:56:01;;;;;;;32.47;19.88;;;;;;;18.58;78.87;101843.25;4981315;28;20057;-81
2022/10/23 07:58:29;;;;;;;24.65;18.00;;;;;;;18.65;78.88;101837.25;4998735;28;20049;-79
2022/10/23 08:01:00;;;;;;;27.13;18.38;;;;;;;18.26;78.62;101770.50;4995882;28;20722;-81
2022/10/23 08:03:30;;;;;;;;;;;;;;;18.58;79.13;101834.34;4984136;28;20092;-81
2022/10/23 08:05:59;;;;;;;30.52;19.30;;;;;;;18.68;79.14;101845.84;5000595;28;20078;-79
2022/10/23 08:08:28;;;;;;;25.83;18.13;;;;;;;18.41;78.94;101779.63;4998326;28;20520;-80
2022/10/23 08:10:58;;;;;;;27.80;17.98;;;;;;;18.95;78.23;101839.44;5000145;28;20057;-80
2022/10/23 08:13:24;;;;;;;25.77;17.98;;;;;;;18.77;78.35;101815.34;4983446;28;20160;-79
2022/10/23 08:15:54;;;;;;;25.95;17.98;;;;;;;18.91;78.32;101832.72;4984525;28;20061;-80
2022/10/23 08:18:21;;;;;;;23.30;18.30;;;;;;;18.96;77.87;101819.63;4999839;28;20431;-81
2022/10/23 08:20:51;;;;;;;27.83;18.02;;;;;;;18.90;77.48;101812.19;4998512;28;20049;-78
2022/10/23 08:23:21;;;;;;;31.60;19.55;;;;;;;18.95;77.55;101817.91;5001785;28;20158;-79
2022/10/23 08:25:48;;;;;;;27.20;19.95;;;;;;;19.00;77.54;101823.69;4999901;28;20462;-80
2022/10/23 08:28:15;;;;;;;25.70;19.30;;;;;;;19.25;77.35;101858.75;4982572;28;20227;-79
2022/10/23 08:30:43;;;;;;;28.77;18.45;;;;;;;19.25;77.14;101858.75;5000505;28;20053;-81
2022/10/23 08:33:10;;;;;;;27.13;17.83;;;;;;;19.28;77.01;101838.75;4999960;28;20054;-80
2022/10/23 08:35:38;;;;;;;33.50;19.40;;;;;;;19.27;76.04;101815.50;4980191;28;20045;-79
2022/10/23 08:38:07;;;;;;;23.88;18.48;;;;;;;18.67;75.83;101711.53;4999806;28;20053;-80
2022/10/23 08:40:36;;;;;;;28.75;19.15;;;;;;;19.59;75.45;101836.31;4996694;28;20057;-79
2022/10/23 08:43:09;;;;;;;22.45;17.77;;;;;;;19.76;75.31;101856.91;4996311;28;20327;-80
2022/10/23 08:45:45;;;;;;;27.55;19.75;;;;;;;19.90;74.95;101857.22;4997293;28;20748;-79
2022/10/23 08:48:41;;;;;;;25.02;18.40;;;;;;;19.97;74.53;101858.25;4995443;28;20103;-81
2022/10/23 08:51:21;;;;;;;35.17;19.88;;;;;;;20.16;74.23;101852.53;4989322;28;20104;-80
2022/10/23 08:53:58;;;;;;;29.10;18.98;;;;;;;20.18;73.63;101839.72;4979300;28;20061;-80
2022/10/23 08:56:33;;;;;;;30.65;19.80;;;;;;;20.15;73.01;101823.91;4983164;28;20174;-80
2022/10/23 08:59:31;;;;;;;27.77;18.83;;;;;;;20.42;73.01;101856.91;4998892;28;20064;-81
2022/10/23 09:02:25;;;;;;;21.90;17.05;;;;;;;20.38;73.07;101850.97;4982741;28;20065;-80
2022/10/23 09:04:54;;;;;;;29.00;17.55;;;;;;;20.29;72.74;101811.56;4998810;28;20115;-82
2022/10/23 09:07:41;;;;;;;25.02;16.13;;;;;;;20.40;72.31;101794.19;5006254;28;20095;-82
2022/10/23 09:10:18;;;;;;;22.30;17.05;;;;;;;20.88;72.06;101851.75;5007143;28;20131;-80
2022/10/23 09:12:49;;;;;;;22.27;17.13;;;;;;;20.78;71.74;101821.41;4999325;28;20692;-79
2022/10/23 09:15:28;;;;;;;23.65;17.80;;;;;;;21.15;70.99;101841.53;4983093;28;20402;-82
2022/10/23 09:18:05;;;;;;;24.15;17.55;;;;;;;21.07;70.98;101824.34;4998453;28;20054;-78
2022/10/23 09:20:34;;;;;;;23.00;16.90;;;;;;;20.94;70.43;101791.66;4998096;28;20155;-80
2022/10/23 09:23:11;;;;;;;22.75;16.15;;;;;;;21.41;70.32;101855.59;4997064;28;20053;-79
2022/10/23 09:25:41;;;;;;;22.35;16.27;;;;;;;21.47;70.17;101830.56;4995809;28;20491;-81
2022/10/23 09:28:26;;;;;;;21.63;17.23;;;;;;;21.55;68.92;101822.41;4998532;28;20049;-80
2022/10/23 09:31:10;;;;;;;24.05;14.48;;;;;;;21.90;68.99;101835.50;4997430;28;20053;-80
2022/10/23 09:33:53;;;;;;;27.05;15.82;;;;;;;21.09;68.61;101694.56;4997266;28;20600;-81
2022/10/23 09:36:23;;;;;;;22.95;16.00;;;;;;;21.39;68.33;101722.56;4994500;28;20119;-81
2022/10/23 09:38:52;;;;;;;21.65;15.23;;;;;;;22.11;68.36;101818.56;4975995;28;20658;-80
2022/10/23 09:41:30;;;;;;;22.67;14.15;;;;;;;22.49;67.75;101832.13;4978014;28;20050;-81
2022/10/23 09:44:01;;;;;;;24.52;14.57;;;;;;;22.66;67.06;101830.91;4979002;28;20085;-79
2022/10/23 09:46:42;;;;;;;18.90;13.32;;;;;;;22.86;66.08;101830.34;4976244;28;20050;-79
2022/10/23 09:49:39;;;;;;;21.38;13.10;;;;;;;22.93;65.56;101836.69;4987746;28;20049;-79
2022/10/23 09:52:09;;;;;;;25.25;13.27;;;;;;;22.82;65.12;101802.81;4978088;28;20175;-80
2022/10/23 09:54:49;;;;;;;17.60;13.13;;;;;;;23.19;65.02;101836.22;5000213;28;20108;-79
2022/10/23 09:57:39;;;;;;;18.05;13.77;;;;;;;23.38;64.30;101842.91;4997119;28;20262;-80
2022/10/23 10:00:18;;;;;;;23.73;13.75;;;;;;;23.51;63.99;101840.31;4980268;28;20081;-81
2022/10/23 10:03:04;;;;;;;22.30;13.10;;;;;;;23.62;63.25;101837.13;4994372;28;20267;-80
2022/10/23 10:05:34;;;;;;;19.90;13.00;;;;;;;23.83;63.62;101844.44;4979355;28;20144;-81
2022/10/23 10:08:19;;;;;;;14.30;12.60;;;;;;;23.97;62.49;101831.84;5001379;28;20076;-77
2022/10/23 10:11:16;;;;;;;17.48;11.57;;;;;;;23.81;62.34;101786.00;4994819;28;20514;-80
2022/10/23 10:14:23;;;;;;;20.90;11.82;;;;;;;24.27;62.06;101840.66;4989393;28;20049;-79
2022/10/23 10:17:10;;;;;;;20.05;12.68;;;;;;;24.25;61.45;101820.19;4989045;28;20057;-81
2022/10/23 10:19:52;;;;;;;19.38;13.13;;;;;;;24.12;61.46;101798.38;4998966;28;20339;-80
2022/10/23 10:22:45;;;;;;;17.90;12.55;;;;;;;24.36;61.31;101844.03;4998958;28;20064;-79
2022/10/23 10:25:40;;;;;;;21.17;13.10;;;;;;;24.36;61.42;101851.34;4952023;28;20178;-82
2022/10/23 10:28:25;;;;;;;19.15;12.23;;;;;;;24.40;61.75;101839.06;4983933;28;20132;-81
2022/10/23 10:31:11;;;;;;;20.77;12.35;;;;;;;24.46;60.96;101844.56;4981555;28;20057;-79
2022/10/23 10:33:52;;;;;;;19.13;11.98;;;;;;;24.52;61.32;101838.34;4999949;28;20108;-78
2022/10/23 10:36:39;;;;;;;22.03;12.50;;;;;;;24.46;61.27;101833.69;4998069;28;20363;-81
2022/10/23 10:39:34;;;;;;;18.77;12.75;;;;;;;24.41;61.37;101836.16;4976818;28;20135;-81
2022/10/23 10:42:17;;;;;;;16.17;13.30;;;;;;;24.28;61.53;101811.63;4960026;28;20141;-80
2022/10/23 10:45:06;;;;;;;17.33;12.88;;;;;;;24.58;61.23;101820.41;4962456;28;20140;-79
2022/10/23 10:47:53;;;;;;;20.88;12.50;;;;;;;24.55;60.54;101809.13;4960682;28;20077;-81
2022/10/23 10:50:40;;;;;;;22.00;13.65;;;;;;;24.69;60.62;101811.72;4991968;28;20156;-81
2022/10/23 10:53:46;;;;;;;21.17;13.10;;;;;;;24.31;60.36;101740.69;4973993;28;20150;-84
2022/10/23 10:56:15;;;;;;;20.38;14.27;;;;;;;24.18;60.37;101735.19;4956040;28;20046;-81
2022/10/23 10:59:05;;;;;;;19.27;14.02;;;;;;;24.55;60.45;101809.97;4975743;28;20407;-82
2022/10/23 11:02:26;;;;;;;20.08;14.57;;;;;;;24.51;60.69;101811.41;4999549;28;20049;-76
2022/10/23 11:05:15;;;;;;;22.75;15.57;;;;;;;23.37;61.01;101643.41;4962556;28;20497;-81
2022/10/23 11:08:20;;;;;;;22.80;16.42;;;;;;;23.83;61.03;101719.69;5000212;28;20444;-77
2022/10/23 11:11:05;;;;;;;24.48;16.05;;;;;;;24.21;61.56;101786.34;4999577;28;20497;-81
2022/10/23 11:13:41;;;;;;;25.10;17.48;;;;;;;24.24;61.48;101807.63;4980033;28;20053;-82
2022/10/23 11:16:20;;;;;;;20.67;15.98;;;;;;;23.88;61.68;101743.50;4997722;28;20058;-81
2022/10/23 11:19:00;;;;;;;29.05;15.52;;;;;;;24.14;61.73;101778.16;5000569;28;20460;-80
2022/10/23 11:21:36;;;;;;;23.83;17.75;;;;;;;23.88;62.07;101748.94;4997418;28;20053;-82
2022/10/23 11:24:12;;;;;;;24.75;17.27;;;;;;;24.12;62.36;101798.38;4985093;28;20053;-81
2022/10/23 11:26:51;;;;;;;18.80;14.23;;;;;;;24.18;62.51;101794.88;5007637;28;20041;-80
2022/10/23 11:29:25;;;;;;;21.30;16.48;;;;;;;24.10;62.54;101780.44;5002807;28;20046;-80
2022/10/23 11:32:20;;;;;;;26.10;16.13;;;;;;;24.03;62.75;101787.69;5001598;28;20265;-80
2022/10/23 11:35:02;;;;;;;22.25;16.10;;;;;;;23.76;62.83;101745.94;5003128;28;20061;-81
2022/10/23 11:37:31;;;;;;;22.40;16.38;;;;;;;23.94;63.27;101775.28;5001641;28;20925;-80
2022/10/23 11:40:01;;;;;;;23.83;16.42;;;;;;;23.96;63.21;101770.50;5003096;28;20515;-80